Grassy Lake, Canada
Current Conditions -  °F | °C
As of 11:00 PM on Thursday 30 Oct 2014 (Local Time) from CYXH Reporting Station
Broken Clouds Broken Clouds  
Wind Chill: 39°   Ceiling: 15000
Heat Index: 43°   Visibility: 9mi
Dew Point: 36°   Wind: 6mph
Humidity: 76%   Direction: NA
Pressure: 30.02"   Gusts: NA
Location:  49.83°N, 111.7°W
Report Text: CYXH 310500Z AUTO VRB05KT 9SM SCT120 BKN150 BKN170 06/02 A3002 RMK PRESFR SLP190
Loading
Personal Weather Stations






























Interactive Weather Map
Tropical Storm Tracking
New forecast layout! Learn more

10-Day Weather Forecast

Advertisements
Track Severe Weather on mobile